createdAt,value
2023-03-27T00:02:11.793Z,5.97
2023-03-27T00:07:15.167Z,6.43
2023-03-27T00:12:17.227Z,6.18
2023-03-27T00:17:19.751Z,6.43
2023-03-27T00:22:21.789Z,7.93
2023-03-27T00:27:25.215Z,8.40
2023-03-27T00:32:27.348Z,8.32
2023-03-27T00:37:29.605Z,8.52
2023-03-27T00:42:31.737Z,7.65
2023-03-27T00:47:37.568Z,7.47
2023-03-27T00:52:42.576Z,10.40
2023-03-27T00:57:50.058Z,8.75
2023-03-27T01:02:52.249Z,9.52
2023-03-27T01:08:01.045Z,9.77
2023-03-27T01:13:07.374Z,9.32
2023-03-27T01:18:53.869Z,8.50
2023-03-27T01:24:26.838Z,9.15
2023-03-27T01:29:48.461Z,10.20
2023-03-27T01:35:29.091Z,10.95
2023-03-27T01:40:36.770Z,11.32
2023-03-27T01:45:54.826Z,11.82
2023-03-27T01:51:03.663Z,12.20
2023-03-27T01:56:26.680Z,13.63
2023-03-27T02:01:38.872Z,9.57
2023-03-27T02:06:45.931Z,9.45
2023-03-27T02:11:57.010Z,10.73
2023-03-27T02:17:03.730Z,8.73
2023-03-27T02:22:05.888Z,9.77
2023-03-27T02:27:22.351Z,7.45
2023-03-27T02:32:27.490Z,8.43
2023-03-27T02:37:58.462Z,9.70
2023-03-27T02:43:39.043Z,10.68
2023-03-27T02:48:54.990Z,10.88
2023-03-27T02:54:06.659Z,9.55
2023-03-27T02:59:16.198Z,10.48
2023-03-27T03:04:22.662Z,14.13
2023-03-27T03:09:44.687Z,15.68
2023-03-27T03:14:47.224Z,16.30
2023-03-27T03:19:49.948Z,17.40
2023-03-27T03:24:52.011Z,15.70
2023-03-27T03:29:56.862Z,19.90
2023-03-27T03:35:02.994Z,25.80
2023-03-27T03:40:12.068Z,18.88
2023-03-27T03:45:19.269Z,15.15
2023-03-27T03:50:21.546Z,9.13
2023-03-27T03:55:25.790Z,17.38
2023-03-27T04:00:28.544Z,26.10
2023-03-27T04:05:32.579Z,13.52
2023-03-27T04:10:39.152Z,21.95
2023-03-27T04:15:47.795Z,24.50
2023-03-27T04:20:55.310Z,24.42
2023-03-27T04:26:01.626Z,21.30
2023-03-27T04:36:50.868Z,13.70
2023-03-27T04:41:58.460Z,18.17
2023-03-27T04:47:08.653Z,17.00
2023-03-27T04:52:14.431Z,17.40
2023-03-27T04:57:19.383Z,15.75
2023-03-27T05:02:23.764Z,14.93
2023-03-27T05:07:32.926Z,16.40
2023-03-27T05:12:37.125Z,17.70
2023-03-27T05:17:41.875Z,16.38
2023-03-27T05:22:45.312Z,19.20
2023-03-27T05:28:03.929Z,18.92
2023-03-27T05:33:09.936Z,20.40
2023-03-27T05:38:13.543Z,18.80
2023-03-27T05:43:22.833Z,20.55
2023-03-27T05:48:25.077Z,22.45
2023-03-27T05:53:28.983Z,17.17
2023-03-27T05:59:10.277Z,18.23
2023-03-27T06:04:13.200Z,17.27
2023-03-27T06:09:27.813Z,18.40
2023-03-27T06:14:56.349Z,16.88
2023-03-27T06:20:13.041Z,17.85
2023-03-27T06:25:17.919Z,16.17
2023-03-27T06:30:40.490Z,16.60
2023-03-27T06:36:21.484Z,17.50
2023-03-27T06:41:25.925Z,17.42
2023-03-27T06:46:45.809Z,14.13
2023-03-27T06:51:52.433Z,14.43
2023-03-27T06:56:56.471Z,13.73
2023-03-27T07:01:58.882Z,12.60
2023-03-27T07:07:29.736Z,10.43
2023-03-27T07:12:31.799Z,14.20
2023-03-27T07:17:47.660Z,12.43
2023-03-27T07:22:53.667Z,12.05
2023-03-27T07:28:14.005Z,13.65
2023-03-27T07:33:16.330Z,14.38
2023-03-27T07:38:18.653Z,14.82
2023-03-27T07:43:41.256Z,15.73
2023-03-27T07:48:44.691Z,16.33
2023-03-27T07:53:56.823Z,13.40
2023-03-27T07:59:07.615Z,13.27
2023-03-27T08:04:10.252Z,12.15
2023-03-27T08:09:15.292Z,13.60
2023-03-27T08:14:26.342Z,12.42
2023-03-27T08:19:33.583Z,13.75
2023-03-27T08:24:36.189Z,14.07
2023-03-27T08:29:58.462Z,13.82
2023-03-27T08:35:01.040Z,15.23
2023-03-27T08:40:08.955Z,11.95
2023-03-27T08:45:32.238Z,12.50
2023-03-27T08:50:44.176Z,9.15
2023-03-27T08:55:52.530Z,10.00
2023-03-27T09:01:46.988Z,10.15
2023-03-27T09:07:11.714Z,11.23
2023-03-27T09:12:49.834Z,6.10
2023-03-27T09:18:01.761Z,6.05
2023-03-27T09:23:19.834Z,6.68
2023-03-27T09:28:51.704Z,7.30
2023-03-27T09:34:03.014Z,6.57
2023-03-27T09:39:08.278Z,7.65
2023-03-27T09:44:25.670Z,6.45
2023-03-27T09:49:31.528Z,10.18
2023-03-27T09:54:56.177Z,5.55
2023-03-27T10:00:25.097Z,7.55
2023-03-27T10:05:30.272Z,6.28
2023-03-27T10:10:34.888Z,7.30
2023-03-27T10:15:41.299Z,7.28
2023-03-27T10:20:56.752Z,6.07
2023-03-27T10:26:04.493Z,5.30
2023-03-27T10:31:29.800Z,3.88
2023-03-27T10:36:39.328Z,6.28
2023-03-27T10:41:48.674Z,3.72
2023-03-27T10:46:53.160Z,7.63
2023-03-27T10:52:19.511Z,5.18
2023-03-27T10:57:47.880Z,4.35
2023-03-27T11:03:15.840Z,3.78
2023-03-27T11:08:47.202Z,5.07
2023-03-27T11:13:49.565Z,10.75
2023-03-27T11:19:08.382Z,7.75
2023-03-27T11:24:38.671Z,3.83
2023-03-27T11:30:16.430Z,4.82
2023-03-27T11:35:37.007Z,4.07
2023-03-27T11:41:06.249Z,3.25
2023-03-27T11:46:23.780Z,4.03
2023-03-27T11:51:26.315Z,6.20
2023-03-27T11:56:51.636Z,3.20
2023-03-27T12:02:06.631Z,3.42
2023-03-27T12:07:36.955Z,5.05
2023-03-27T12:12:45.802Z,7.45
2023-03-27T12:18:35.883Z,3.78
2023-03-27T12:24:14.627Z,3.40
2023-03-27T12:29:58.325Z,2.63
2023-03-27T12:35:10.758Z,3.58
2023-03-27T12:40:39.940Z,4.13
2023-03-27T12:46:30.344Z,3.53
2023-03-27T12:51:51.145Z,2.28
2023-03-27T12:57:20.736Z,2.63
2023-03-27T13:02:42.988Z,2.78
2023-03-27T13:08:01.289Z,3.17
2023-03-27T13:13:41.468Z,3.58
2023-03-27T13:19:01.843Z,3.33
2023-03-27T13:24:23.833Z,3.10
2023-03-27T13:29:32.268Z,4.15
2023-03-27T13:34:41.800Z,5.63
2023-03-27T13:39:55.703Z,5.30
2023-03-27T13:45:15.439Z,5.70
2023-03-27T13:50:52.263Z,5.50
2023-03-27T13:56:13.717Z,12.10
2023-03-27T14:02:02.644Z,5.78
2023-03-27T14:07:14.520Z,7.97
2023-03-27T14:18:16.307Z,5.97
2023-03-27T14:23:25.766Z,5.70
2023-03-27T14:28:42.396Z,4.65
2023-03-27T14:34:14.587Z,4.72
2023-03-27T14:39:24.596Z,6.07
2023-03-27T14:44:34.000Z,4.93
2023-03-27T14:49:50.869Z,3.92
2023-03-27T14:55:08.960Z,5.38
2023-03-27T15:00:24.647Z,4.25
2023-03-27T15:05:26.786Z,4.85
2023-03-27T15:10:37.383Z,4.15
2023-03-27T15:15:44.355Z,4.05
2023-03-27T15:20:47.302Z,5.97
2023-03-27T15:25:57.878Z,4.93
2023-03-27T15:31:03.505Z,4.82
2023-03-27T15:36:11.236Z,5.28
2023-03-27T15:41:16.346Z,4.43
2023-03-27T15:46:20.239Z,5.22
2023-03-27T15:51:22.264Z,5.30
2023-03-27T16:01:52.891Z,3.63
2023-03-27T16:07:11.036Z,3.33
2023-03-27T16:12:16.336Z,4.35
2023-03-27T16:17:38.334Z,7.18
2023-03-27T16:32:48.183Z,7.35
2023-03-27T16:37:50.409Z,8.05
2023-03-27T16:42:52.409Z,5.72
2023-03-27T16:52:57.932Z,6.97
2023-03-27T16:58:00.055Z,5.95
2023-03-27T17:03:02.302Z,5.50
2023-03-27T17:08:06.726Z,5.35
2023-03-27T17:13:09.603Z,5.43
2023-03-27T17:18:11.677Z,5.40
2023-03-27T17:23:13.874Z,5.75
2023-03-27T17:28:16.261Z,5.72
2023-03-27T17:33:18.350Z,4.88
2023-03-27T17:38:22.672Z,5.95
2023-03-27T17:43:24.859Z,5.90
2023-03-27T17:48:27.026Z,9.02
2023-03-27T17:53:29.540Z,5.72
2023-03-27T17:58:34.172Z,7.03
2023-03-27T18:03:36.949Z,7.03
2023-03-27T18:08:39.421Z,5.82
2023-03-27T18:13:42.051Z,5.75
2023-03-27T18:18:44.175Z,5.63
2023-03-27T18:23:46.940Z,9.05
2023-03-27T18:28:49.182Z,6.63
2023-03-27T18:33:52.643Z,9.68
2023-03-27T18:38:56.557Z,9.30
2023-03-27T18:43:58.804Z,6.20
2023-03-27T18:49:10.212Z,8.05
2023-03-27T18:54:16.291Z,8.60
2023-03-27T18:59:19.494Z,6.88
2023-03-27T19:04:21.740Z,8.77
2023-03-27T19:09:31.214Z,8.23
2023-03-27T19:14:42.788Z,8.63
2023-03-27T19:20:10.120Z,8.68
2023-03-27T19:25:25.897Z,7.30
2023-03-27T19:30:28.802Z,7.47
2023-03-27T19:35:31.209Z,7.53
2023-03-27T19:40:33.356Z,7.05
2023-03-27T19:45:35.441Z,8.88
2023-03-27T19:50:37.446Z,4.85
2023-03-27T20:00:53.784Z,4.85
2023-03-27T20:06:06.304Z,5.13
2023-03-27T20:11:09.337Z,7.45
2023-03-27T20:16:14.944Z,6.07
2023-03-27T20:21:25.726Z,4.78
2023-03-27T20:26:29.731Z,4.32
2023-03-27T20:31:40.908Z,5.13
2023-03-27T20:36:43.418Z,6.20
2023-03-27T20:42:04.992Z,5.33
2023-03-27T20:47:15.008Z,5.93
2023-03-27T20:52:22.887Z,6.05
2023-03-27T20:57:25.162Z,7.43
2023-03-27T21:02:27.385Z,5.22
2023-03-27T21:07:34.235Z,5.38
2023-03-27T21:12:36.966Z,4.40
2023-03-27T21:17:41.492Z,6.68
2023-03-27T21:22:43.842Z,6.18
2023-03-27T21:27:45.882Z,7.75
2023-03-27T21:32:49.200Z,5.70
2023-03-27T21:37:51.416Z,8.15
2023-03-27T21:42:53.652Z,5.88
2023-03-27T21:47:55.809Z,5.38
2023-03-27T21:52:57.868Z,7.10
2023-03-27T21:58:00.110Z,5.60
2023-03-27T22:03:02.975Z,6.05
2023-03-27T22:08:05.699Z,5.13
2023-03-27T22:13:07.823Z,4.70
2023-03-27T22:18:10.037Z,5.25
2023-03-27T22:23:12.360Z,6.40
2023-03-27T22:28:14.434Z,7.60
2023-03-27T22:33:16.589Z,6.57
2023-03-27T22:38:18.789Z,4.97
2023-03-27T22:43:22.779Z,6.10
2023-03-27T22:48:25.430Z,4.30
2023-03-27T22:53:27.764Z,3.90
2023-03-27T22:58:31.008Z,5.10
2023-03-27T23:03:33.551Z,5.43
2023-03-27T23:08:35.855Z,5.47
2023-03-27T23:13:37.913Z,6.22
2023-03-27T23:18:40.368Z,8.68
2023-03-27T23:23:42.534Z,6.53
2023-03-27T23:28:45.326Z,6.20
2023-03-27T23:33:49.329Z,7.10
2023-03-27T23:38:52.684Z,6.55
2023-03-27T23:43:54.751Z,7.85
2023-03-27T23:48:57.401Z,8.20
2023-03-27T23:53:59.428Z,9.45
2023-03-27T23:59:01.671Z,7.72
